createdAt,value
2018-08-21T00:00:10.492Z,17.00
2018-08-21T00:02:44.356Z,17.10
2018-08-21T00:05:13.710Z,17.20
2018-08-21T00:07:42.237Z,17.20
2018-08-21T00:10:10.678Z,17.10
2018-08-21T00:12:39.132Z,17.00
2018-08-21T00:15:20.190Z,16.80
2018-08-21T00:17:48.688Z,16.70
2018-08-21T00:20:22.516Z,16.70
2018-08-21T00:22:53.328Z,16.70
2018-08-21T00:25:22.142Z,16.70
2018-08-21T00:27:50.584Z,16.70
2018-08-21T00:30:31.100Z,16.60
2018-08-21T00:33:01.199Z,16.60
2018-08-21T00:35:31.043Z,16.60
2018-08-21T00:37:59.539Z,16.60
2018-08-21T00:40:27.952Z,16.60
2018-08-21T00:42:56.488Z,16.60
2018-08-21T00:45:24.954Z,16.60
2018-08-21T00:47:53.379Z,16.50
2018-08-21T00:50:21.801Z,16.20
2018-08-21T00:52:50.328Z,16.00
2018-08-21T00:55:18.772Z,15.80
2018-08-21T00:57:47.240Z,15.80
2018-08-21T01:00:15.670Z,15.90
2018-08-21T01:02:44.173Z,15.90
2018-08-21T01:05:13.519Z,15.90
2018-08-21T01:07:41.985Z,15.80
2018-08-21T01:10:10.431Z,15.70
2018-08-21T01:12:38.908Z,15.70
2018-08-21T01:15:08.515Z,15.80
2018-08-21T01:17:36.999Z,15.80
2018-08-21T01:20:07.038Z,15.90
2018-08-21T01:22:35.504Z,16.00
2018-08-21T01:25:04.259Z,16.10
2018-08-21T01:27:32.729Z,16.10
2018-08-21T01:30:01.265Z,16.10
2018-08-21T01:32:29.743Z,16.10
2018-08-21T01:34:58.212Z,16.10
2018-08-21T01:37:26.645Z,16.00
2018-08-21T01:39:55.108Z,15.80
2018-08-21T01:42:23.587Z,15.60
2018-08-21T01:44:52.134Z,15.60
2018-08-21T01:47:20.596Z,15.70
2018-08-21T01:49:49.044Z,15.80
2018-08-21T01:52:19.620Z,15.90
2018-08-21T01:54:48.103Z,15.80
2018-08-21T01:57:16.528Z,15.70
2018-08-21T01:59:44.984Z,15.60
2018-08-21T02:02:13.497Z,15.60
2018-08-21T02:04:42.001Z,15.60
2018-08-21T02:07:10.459Z,15.50
2018-08-21T02:09:38.909Z,15.60
2018-08-21T02:12:07.660Z,15.60
2018-08-21T02:14:36.131Z,15.70
2018-08-21T02:17:04.628Z,15.70
2018-08-21T02:19:33.060Z,15.80
2018-08-21T02:22:01.564Z,15.90
2018-08-21T02:24:29.972Z,15.90
2018-08-21T02:26:58.450Z,16.10
2018-08-21T02:29:26.852Z,16.20
2018-08-21T02:31:55.395Z,16.30
2018-08-21T02:34:23.769Z,16.30
2018-08-21T02:36:52.241Z,16.30
2018-08-21T02:39:20.650Z,16.30
2018-08-21T02:41:49.118Z,16.30
2018-08-21T02:44:17.517Z,16.20
2018-08-21T02:46:45.994Z,16.10
2018-08-21T02:49:14.471Z,16.00
2018-08-21T02:51:42.939Z,16.00
2018-08-21T02:54:11.484Z,16.00
2018-08-21T02:56:40.848Z,16.00
2018-08-21T02:59:09.263Z,16.00
2018-08-21T03:01:55.041Z,16.00
2018-08-21T03:04:24.687Z,16.00
2018-08-21T03:06:53.144Z,16.00
2018-08-21T03:09:23.602Z,16.00
2018-08-21T03:11:52.811Z,16.00
2018-08-21T03:14:21.480Z,16.00
2018-08-21T03:16:49.973Z,16.10
2018-08-21T03:19:18.385Z,16.10
2018-08-21T03:21:46.857Z,16.20
2018-08-21T03:24:15.736Z,16.20
2018-08-21T03:26:44.208Z,16.30
2018-08-21T03:29:12.672Z,16.30
2018-08-21T03:31:42.220Z,16.30
2018-08-21T03:34:10.638Z,16.40
2018-08-21T03:36:39.052Z,16.40
2018-08-21T03:39:08.673Z,16.30
2018-08-21T03:41:37.277Z,16.20
2018-08-21T03:44:05.808Z,16.20
2018-08-21T03:46:39.454Z,16.30
2018-08-21T03:49:07.921Z,16.30
2018-08-21T03:51:36.388Z,16.30
2018-08-21T03:54:04.916Z,16.30
2018-08-21T03:56:34.070Z,16.30
2018-08-21T03:59:02.573Z,16.20
2018-08-21T04:01:31.138Z,16.20
2018-08-21T04:04:00.444Z,16.20
2018-08-21T04:06:36.811Z,16.30
2018-08-21T04:09:08.533Z,16.30
2018-08-21T04:11:37.013Z,16.40
2018-08-21T04:14:05.479Z,16.40
2018-08-21T04:16:33.934Z,16.50
2018-08-21T04:19:02.436Z,16.50
2018-08-21T04:21:31.369Z,16.60
2018-08-21T04:23:59.833Z,16.70
2018-08-21T04:26:29.501Z,16.80
2018-08-21T04:28:57.969Z,16.90
2018-08-21T04:31:26.505Z,16.90
2018-08-21T04:33:57.569Z,16.90
2018-08-21T04:36:26.131Z,16.90
2018-08-21T04:38:54.585Z,16.90
2018-08-21T04:41:23.086Z,16.80
2018-08-21T04:43:51.536Z,16.80
2018-08-21T04:46:21.118Z,16.80
2018-08-21T04:48:49.731Z,16.80
2018-08-21T04:51:19.493Z,16.90
2018-08-21T04:53:47.960Z,17.00
2018-08-21T04:56:16.471Z,17.00
2018-08-21T04:58:49.364Z,17.10
2018-08-21T05:01:17.884Z,17.20
2018-08-21T05:03:46.293Z,17.20
2018-08-21T05:06:14.817Z,17.30
2018-08-21T05:08:43.260Z,17.30
2018-08-21T05:11:14.274Z,17.30
2018-08-21T05:13:42.769Z,17.30
2018-08-21T05:16:11.254Z,17.40
2018-08-21T05:18:39.699Z,17.40
2018-08-21T05:21:08.216Z,17.40
2018-08-21T05:23:36.636Z,17.30
2018-08-21T05:26:05.399Z,17.30
2018-08-21T05:28:34.888Z,17.40
2018-08-21T05:31:05.564Z,17.40
2018-08-21T05:33:34.024Z,17.50
2018-08-21T05:36:04.436Z,17.70
2018-08-21T05:38:37.215Z,17.80
2018-08-21T05:41:06.947Z,18.00
2018-08-21T05:43:36.729Z,18.10
2018-08-21T05:46:06.111Z,18.20
2018-08-21T05:48:35.852Z,18.30
2018-08-21T05:51:04.360Z,18.40
2018-08-21T05:53:32.937Z,18.60
2018-08-21T05:56:01.369Z,18.60
2018-08-21T05:58:29.890Z,18.60
2018-08-21T06:00:58.408Z,18.70
2018-08-21T06:03:26.863Z,18.80
2018-08-21T06:05:55.381Z,19.00
2018-08-21T06:08:23.888Z,19.20
2018-08-21T06:10:52.317Z,19.30
2018-08-21T06:13:20.785Z,19.40
2018-08-21T06:15:49.280Z,19.50
2018-08-21T06:18:22.038Z,19.60
2018-08-21T06:20:55.545Z,19.60
2018-08-21T06:23:26.472Z,19.70
2018-08-21T06:25:54.935Z,19.70
2018-08-21T06:28:35.328Z,19.80
2018-08-21T06:31:03.800Z,20.00
2018-08-21T06:33:32.283Z,20.10
2018-08-21T06:36:01.897Z,20.30
2018-08-21T06:38:30.338Z,20.40
2018-08-21T06:40:58.797Z,20.50
2018-08-21T06:43:27.569Z,20.70
2018-08-21T06:46:07.797Z,20.90
2018-08-21T06:48:36.237Z,21.10
2018-08-21T06:51:04.788Z,21.40
2018-08-21T06:53:33.236Z,21.60
2018-08-21T06:56:01.982Z,21.70
2018-08-21T06:58:30.455Z,21.90
2018-08-21T07:01:04.169Z,22.10
2018-08-21T07:03:32.871Z,22.20
2018-08-21T07:06:01.337Z,22.30
2018-08-21T07:08:29.794Z,22.30
2018-08-21T07:10:58.302Z,22.40
2018-08-21T07:13:26.736Z,22.50
2018-08-21T07:15:55.232Z,22.60
2018-08-21T07:18:25.380Z,22.60
2018-08-21T07:20:53.846Z,22.70
2018-08-21T07:23:22.281Z,22.70
2018-08-21T07:25:56.343Z,22.70
2018-08-21T07:28:28.700Z,22.70
2018-08-21T07:30:57.246Z,22.80
2018-08-21T07:33:32.561Z,23.00
2018-08-21T07:36:01.057Z,23.30
2018-08-21T07:38:37.960Z,23.70
2018-08-21T07:41:06.631Z,24.00
2018-08-21T07:43:35.069Z,24.30
2018-08-21T07:46:08.963Z,24.70
2018-08-21T07:48:45.978Z,25.10
2018-08-21T07:51:14.880Z,25.50
2018-08-21T07:53:44.191Z,25.70
2018-08-21T07:56:15.733Z,26.10
2018-08-21T07:59:19.515Z,26.30
2018-08-21T08:01:49.675Z,26.30
2018-08-21T08:04:33.216Z,26.30
2018-08-21T08:07:06.676Z,26.30
2018-08-21T08:09:35.142Z,26.40
2018-08-21T08:12:03.618Z,26.40
2018-08-21T08:14:32.049Z,26.40
2018-08-21T08:17:00.507Z,26.50
2018-08-21T08:19:28.942Z,26.50
2018-08-21T08:21:57.400Z,26.50
2018-08-21T08:24:25.828Z,26.50
2018-08-21T08:26:54.624Z,26.90
2018-08-21T08:29:23.056Z,27.30
2018-08-21T08:31:51.515Z,27.70
2018-08-21T08:34:19.946Z,28.20
2018-08-21T08:36:48.401Z,28.80
2018-08-21T08:39:16.836Z,29.50
2018-08-21T08:41:45.314Z,30.20
2018-08-21T08:44:13.745Z,30.80
2018-08-21T08:46:42.179Z,31.40
2018-08-21T08:49:10.896Z,31.90
2018-08-21T08:51:40.173Z,32.20
2018-08-21T08:54:09.678Z,32.40
2018-08-21T08:56:43.527Z,32.80
2018-08-21T08:59:12.411Z,32.90
2018-08-21T09:01:40.863Z,32.70
2018-08-21T09:04:09.356Z,32.60
2018-08-21T09:06:37.928Z,32.70
2018-08-21T09:09:08.372Z,32.90
2018-08-21T09:11:41.604Z,32.30
2018-08-21T09:14:10.025Z,31.60
2018-08-21T09:16:38.437Z,31.20
2018-08-21T09:19:06.927Z,30.80
2018-08-21T09:21:35.345Z,30.30
2018-08-21T09:24:03.792Z,29.70
2018-08-21T09:26:37.669Z,29.20
2018-08-21T09:29:06.779Z,28.70
2018-08-21T09:31:41.341Z,28.20
2018-08-21T09:34:09.764Z,27.90
2018-08-21T09:36:39.036Z,28.50
2018-08-21T09:39:07.512Z,29.70
2018-08-21T09:41:35.992Z,30.70
2018-08-21T09:44:04.422Z,31.40
2018-08-21T09:46:32.856Z,32.10
2018-08-21T09:49:01.261Z,32.50
2018-08-21T09:51:29.716Z,32.50
2018-08-21T09:53:58.129Z,32.40
2018-08-21T09:56:26.555Z,32.00
2018-08-21T09:58:55.008Z,31.60
2018-08-21T10:01:28.920Z,31.30
2018-08-21T10:04:02.812Z,30.80
2018-08-21T10:06:31.329Z,31.30
2018-08-21T10:08:59.743Z,32.00
2018-08-21T10:11:29.013Z,32.30
2018-08-21T10:13:58.053Z,32.90
2018-08-21T10:16:26.529Z,33.30
2018-08-21T10:18:55.656Z,33.70
2018-08-21T10:21:28.152Z,34.00
2018-08-21T10:23:58.502Z,34.00
2018-08-21T10:26:30.347Z,34.40
2018-08-21T10:28:59.516Z,34.10
2018-08-21T10:31:27.979Z,33.30
2018-08-21T10:33:56.468Z,32.70
2018-08-21T10:36:24.912Z,32.60
2018-08-21T10:38:53.353Z,32.90
2018-08-21T10:41:21.801Z,33.60
2018-08-21T10:43:50.240Z,34.40
2018-08-21T10:46:18.692Z,34.80
2018-08-21T10:48:47.129Z,34.40
2018-08-21T10:51:15.560Z,33.60
2018-08-21T10:53:43.984Z,32.80
2018-08-21T10:56:12.476Z,32.40
2018-08-21T10:58:40.930Z,32.40
2018-08-21T11:01:09.354Z,32.70
2018-08-21T11:03:52.449Z,33.10
2018-08-21T11:06:21.093Z,33.50
2018-08-21T11:08:49.587Z,33.90
2018-08-21T11:11:18.000Z,34.00
2018-08-21T11:13:58.860Z,34.40
2018-08-21T11:16:28.332Z,34.50
2018-08-21T11:18:57.034Z,34.30
2018-08-21T11:21:25.497Z,34.00
2018-08-21T11:23:53.948Z,33.60
2018-08-21T11:26:22.572Z,33.60
2018-08-21T11:28:51.282Z,33.80
2018-08-21T11:31:19.812Z,34.00
2018-08-21T11:33:48.254Z,34.10
2018-08-21T11:36:16.707Z,34.10
2018-08-21T11:38:45.716Z,33.70
2018-08-21T11:41:14.276Z,32.90
2018-08-21T11:43:42.731Z,32.10
2018-08-21T11:46:11.346Z,31.60
2018-08-21T11:48:39.784Z,31.10
2018-08-21T11:51:08.267Z,30.80
2018-08-21T11:53:36.752Z,30.60
2018-08-21T11:56:05.202Z,30.40
2018-08-21T11:58:33.632Z,30.30
2018-08-21T12:01:02.224Z,30.20
2018-08-21T12:03:30.858Z,30.10
2018-08-21T12:05:59.293Z,30.00
2018-08-21T12:08:27.720Z,30.00
2018-08-21T12:10:56.185Z,30.00
2018-08-21T12:13:24.641Z,30.10
2018-08-21T12:15:53.104Z,30.30
2018-08-21T12:18:21.566Z,30.90
2018-08-21T12:20:50.004Z,31.60
2018-08-21T12:23:18.433Z,32.00
2018-08-21T12:25:46.868Z,32.40
2018-08-21T12:28:15.300Z,32.70
2018-08-21T12:30:44.583Z,32.90
2018-08-21T12:33:13.010Z,32.70
2018-08-21T12:35:41.489Z,32.40
2018-08-21T12:38:09.926Z,32.30
2018-08-21T12:40:38.413Z,32.00
2018-08-21T12:43:06.853Z,31.90
2018-08-21T12:45:35.521Z,31.70
2018-08-21T12:48:03.980Z,31.70
2018-08-21T12:50:32.497Z,31.80
2018-08-21T12:53:00.913Z,31.60
2018-08-21T12:55:29.368Z,31.30
2018-08-21T12:57:57.790Z,31.00
2018-08-21T13:00:26.289Z,30.70
2018-08-21T13:02:54.705Z,30.60
2018-08-21T13:05:23.169Z,30.50
2018-08-21T13:07:51.599Z,30.40
2018-08-21T13:10:20.119Z,30.40
2018-08-21T13:12:48.560Z,30.50
2018-08-21T13:15:17.020Z,30.70
2018-08-21T13:17:45.481Z,31.00
2018-08-21T13:20:13.905Z,31.30
2018-08-21T13:22:42.351Z,31.50
2018-08-21T13:25:10.849Z,31.60
2018-08-21T13:27:39.309Z,31.70
2018-08-21T13:30:07.736Z,31.40
2018-08-21T13:32:36.200Z,31.30
2018-08-21T13:35:04.668Z,31.00
2018-08-21T13:37:33.101Z,30.90
2018-08-21T13:40:01.508Z,30.90
2018-08-21T13:42:29.974Z,30.90
2018-08-21T13:44:58.389Z,30.90
2018-08-21T13:47:26.828Z,31.00
2018-08-21T13:49:55.303Z,31.10
2018-08-21T13:52:23.754Z,31.30
2018-08-21T13:54:52.209Z,31.40
2018-08-21T13:57:20.629Z,31.50
2018-08-21T13:59:49.056Z,31.50
2018-08-21T14:02:17.496Z,31.30
2018-08-21T14:04:45.964Z,30.90
2018-08-21T14:07:14.392Z,30.70
2018-08-21T14:09:42.812Z,30.50
2018-08-21T14:12:11.228Z,30.30
2018-08-21T14:14:39.664Z,30.30
2018-08-21T14:17:08.104Z,30.60
2018-08-21T14:19:36.556Z,30.50
2018-08-21T14:22:04.976Z,30.40
2018-08-21T14:24:33.396Z,30.60
2018-08-21T14:27:01.903Z,30.60
2018-08-21T14:29:30.358Z,30.20
2018-08-21T14:31:58.781Z,30.00
2018-08-21T14:34:27.224Z,29.70
2018-08-21T14:36:55.640Z,29.60
2018-08-21T14:39:24.089Z,29.70
2018-08-21T14:41:52.571Z,29.90
2018-08-21T14:44:20.953Z,30.20
2018-08-21T14:46:49.368Z,30.50
2018-08-21T14:49:17.852Z,30.60
2018-08-21T14:51:46.308Z,30.50
2018-08-21T14:54:14.983Z,30.30
2018-08-21T14:56:43.407Z,30.10
2018-08-21T14:59:11.852Z,29.90
2018-08-21T15:01:40.360Z,29.80
2018-08-21T15:04:08.819Z,29.80
2018-08-21T15:06:37.252Z,29.80
2018-08-21T15:09:08.031Z,29.60
2018-08-21T15:11:36.476Z,29.50
2018-08-21T15:14:04.944Z,29.50
2018-08-21T15:16:33.432Z,29.60
2018-08-21T15:19:01.852Z,29.60
2018-08-21T15:21:30.303Z,29.50
2018-08-21T15:23:58.752Z,29.30
2018-08-21T15:26:27.209Z,29.20
2018-08-21T15:28:55.684Z,29.00
2018-08-21T15:31:24.184Z,28.90
2018-08-21T15:33:52.722Z,28.90
2018-08-21T15:36:21.198Z,28.80
2018-08-21T15:38:49.632Z,28.70
2018-08-21T15:41:18.080Z,28.60
2018-08-21T15:43:46.524Z,28.50
2018-08-21T15:46:14.971Z,28.50
2018-08-21T15:48:43.400Z,28.50
2018-08-21T15:51:11.844Z,28.50
2018-08-21T15:53:40.307Z,28.50
2018-08-21T15:56:08.744Z,28.50
2018-08-21T15:58:37.152Z,28.40
2018-08-21T16:01:05.909Z,28.40
2018-08-21T16:03:34.320Z,28.20
2018-08-21T16:06:02.850Z,28.30
2018-08-21T16:08:31.256Z,28.20
2018-08-21T16:10:59.653Z,28.10
2018-08-21T16:13:28.113Z,27.90
2018-08-21T16:15:56.516Z,27.80
2018-08-21T16:18:24.965Z,27.70
2018-08-21T16:20:53.385Z,27.60
2018-08-21T16:23:21.845Z,27.40
2018-08-21T16:25:50.382Z,27.40
2018-08-21T16:28:18.808Z,27.30
2018-08-21T16:30:47.212Z,27.20
2018-08-21T16:33:15.678Z,27.00
2018-08-21T16:35:44.100Z,26.80
2018-08-21T16:38:12.519Z,26.60
2018-08-21T16:40:40.981Z,26.50
2018-08-21T16:43:09.379Z,26.40
2018-08-21T16:45:37.791Z,26.50
2018-08-21T16:48:06.221Z,26.50
2018-08-21T16:50:34.713Z,26.60
2018-08-21T16:53:03.168Z,26.50
2018-08-21T16:55:31.625Z,26.50
2018-08-21T16:58:00.073Z,26.40
2018-08-21T17:00:28.547Z,26.40
2018-08-21T17:02:57.038Z,26.30
2018-08-21T17:05:25.526Z,26.30
2018-08-21T17:07:53.956Z,26.20
2018-08-21T17:10:22.441Z,26.10
2018-08-21T17:12:50.860Z,26.10
2018-08-21T17:15:19.324Z,26.10
2018-08-21T17:17:47.764Z,26.00
2018-08-21T17:20:16.242Z,26.00
2018-08-21T17:22:44.693Z,26.00
2018-08-21T17:25:13.216Z,25.90
2018-08-21T17:27:41.660Z,25.90
2018-08-21T17:30:10.236Z,25.80
2018-08-21T17:32:38.684Z,25.80
2018-08-21T17:35:07.169Z,25.70
2018-08-21T17:37:35.604Z,25.70
2018-08-21T17:40:04.702Z,25.60
2018-08-21T17:42:33.170Z,25.50
2018-08-21T17:45:01.621Z,25.50
2018-08-21T17:47:30.081Z,25.40
2018-08-21T17:49:58.508Z,25.30
2018-08-21T17:52:26.967Z,25.20
2018-08-21T17:54:55.474Z,25.10
2018-08-21T17:57:23.924Z,25.00
2018-08-21T17:59:52.421Z,24.90
2018-08-21T18:02:20.892Z,24.80
2018-08-21T18:04:49.352Z,24.60
2018-08-21T18:07:17.834Z,24.50
2018-08-21T18:09:46.283Z,24.30
2018-08-21T18:12:14.772Z,24.20
2018-08-21T18:14:43.253Z,24.10
2018-08-21T18:17:11.741Z,24.00
2018-08-21T18:19:40.206Z,23.80
2018-08-21T18:22:08.764Z,23.70
2018-08-21T18:24:37.238Z,23.50
2018-08-21T18:27:05.885Z,23.40
2018-08-21T18:29:34.351Z,23.20
2018-08-21T18:32:02.800Z,23.10
2018-08-21T18:34:31.296Z,22.90
2018-08-21T18:36:59.784Z,22.70
2018-08-21T18:39:28.225Z,22.60
2018-08-21T18:41:56.660Z,22.50
2018-08-21T18:44:27.517Z,22.40
2018-08-21T18:46:55.952Z,22.30
2018-08-21T18:49:24.404Z,22.20
2018-08-21T18:51:52.852Z,22.20
2018-08-21T18:54:21.307Z,22.20
2018-08-21T18:56:49.833Z,22.20
2018-08-21T18:59:18.296Z,22.30
2018-08-21T19:01:46.728Z,22.30
2018-08-21T19:04:15.206Z,22.40
2018-08-21T19:06:43.652Z,22.30
2018-08-21T19:09:12.589Z,22.20
2018-08-21T19:11:41.041Z,22.10
2018-08-21T19:14:09.627Z,22.10
2018-08-21T19:16:38.026Z,22.00
2018-08-21T19:19:06.496Z,21.90
2018-08-21T19:21:34.952Z,21.80
2018-08-21T19:24:03.398Z,21.70
2018-08-21T19:26:31.851Z,21.60
2018-08-21T19:29:00.267Z,21.50
2018-08-21T19:31:28.720Z,21.50
2018-08-21T19:33:57.260Z,21.40
2018-08-21T19:36:25.761Z,21.40
2018-08-21T19:38:54.356Z,21.50
2018-08-21T19:41:22.920Z,21.50
2018-08-21T19:43:51.387Z,21.40
2018-08-21T19:46:19.838Z,21.40
2018-08-21T19:48:48.273Z,21.40
2018-08-21T19:51:16.733Z,21.40
2018-08-21T19:53:45.169Z,21.40
2018-08-21T19:56:13.595Z,21.40
2018-08-21T19:58:42.004Z,21.40
2018-08-21T20:01:10.481Z,21.40
2018-08-21T20:03:38.921Z,21.40
2018-08-21T20:06:07.364Z,21.50
2018-08-21T20:08:36.250Z,21.50
2018-08-21T20:11:05.004Z,21.50
2018-08-21T20:13:33.932Z,21.40
2018-08-21T20:16:02.643Z,21.30
2018-08-21T20:18:31.104Z,21.20
2018-08-21T20:20:59.513Z,21.20
2018-08-21T20:23:27.950Z,21.10
2018-08-21T20:25:56.413Z,21.10
2018-08-21T20:28:24.836Z,21.10
2018-08-21T20:30:53.342Z,21.00
2018-08-21T20:33:21.716Z,20.90
2018-08-21T20:35:50.788Z,20.80
2018-08-21T20:38:19.252Z,20.80
2018-08-21T20:40:51.239Z,20.70
2018-08-21T20:43:20.247Z,20.60
2018-08-21T20:45:48.670Z,20.40
2018-08-21T20:48:28.132Z,20.30
2018-08-21T20:50:56.947Z,20.30
2018-08-21T20:53:25.453Z,20.20
2018-08-21T20:55:54.341Z,20.20
2018-08-21T20:58:24.137Z,20.20
2018-08-21T21:00:52.720Z,20.10
2018-08-21T21:03:22.366Z,19.90
2018-08-21T21:05:52.211Z,19.70
2018-08-21T21:08:20.957Z,19.60
2018-08-21T21:10:49.408Z,19.40
2018-08-21T21:13:29.075Z,19.20
2018-08-21T21:16:08.703Z,19.10
2018-08-21T21:18:48.337Z,19.10
2018-08-21T21:21:27.874Z,19.10
2018-08-21T21:23:55.208Z,19.00
2018-08-21T21:26:28.924Z,18.90
2018-08-21T21:28:57.362Z,18.90
2018-08-21T21:31:25.769Z,18.90
2018-08-21T21:33:54.209Z,18.90
2018-08-21T21:36:22.613Z,18.90
2018-08-21T21:38:51.093Z,19.00
2018-08-21T21:41:19.501Z,19.00
2018-08-21T21:43:47.929Z,19.00
2018-08-21T21:46:16.410Z,18.90
2018-08-21T21:48:44.823Z,18.90
2018-08-21T21:51:13.256Z,18.90
2018-08-21T21:53:41.681Z,18.90
2018-08-21T21:56:10.131Z,18.90
2018-08-21T21:58:38.552Z,18.90
2018-08-21T22:01:07.040Z,18.80
2018-08-21T22:03:35.464Z,18.60
2018-08-21T22:06:03.921Z,18.60
2018-08-21T22:08:32.340Z,18.60
2018-08-21T22:11:00.783Z,18.60
2018-08-21T22:13:29.205Z,18.50
2018-08-21T22:15:57.643Z,18.50
2018-08-21T22:18:26.060Z,18.50
2018-08-21T22:20:54.500Z,18.60
2018-08-21T22:23:22.936Z,18.60
2018-08-21T22:25:51.384Z,18.60
2018-08-21T22:28:19.875Z,18.60
2018-08-21T22:30:48.424Z,18.60
2018-08-21T22:33:16.848Z,18.60
2018-08-21T22:35:45.288Z,18.50
2018-08-21T22:38:13.724Z,18.50
2018-08-21T22:40:42.185Z,18.40
2018-08-21T22:43:10.615Z,18.30
2018-08-21T22:45:39.041Z,18.20
2018-08-21T22:48:07.504Z,18.10
2018-08-21T22:50:35.933Z,18.10
2018-08-21T22:53:04.380Z,18.00
2018-08-21T22:55:32.783Z,18.00
2018-08-21T22:58:01.220Z,18.00
2018-08-21T23:00:29.652Z,18.00
2018-08-21T23:02:58.085Z,18.00
2018-08-21T23:05:26.493Z,18.00
2018-08-21T23:07:54.998Z,18.00
2018-08-21T23:10:23.408Z,18.00
2018-08-21T23:12:51.837Z,18.00
2018-08-21T23:15:20.255Z,18.00
2018-08-21T23:17:48.692Z,18.00
2018-08-21T23:20:17.104Z,18.10
2018-08-21T23:22:45.736Z,18.10
2018-08-21T23:25:14.142Z,17.90
2018-08-21T23:27:42.573Z,17.70
2018-08-21T23:30:10.988Z,17.60
2018-08-21T23:32:39.432Z,17.60
2018-08-21T23:35:07.854Z,17.60
2018-08-21T23:37:36.272Z,17.50
2018-08-21T23:40:04.696Z,17.50
2018-08-21T23:42:33.123Z,17.50
2018-08-21T23:45:01.532Z,17.50
2018-08-21T23:47:29.965Z,17.60
2018-08-21T23:49:58.368Z,17.60
2018-08-21T23:52:27.128Z,17.70
2018-08-21T23:54:55.540Z,17.60
2018-08-21T23:57:23.994Z,17.60
2018-08-21T23:59:52.417Z,17.60
